Terminal Aerodrome Forecast
Issued by NWS Raleigh/Durham, NC

Home | Current Version | Previous Version | Text Only | Print | Product List | Glossary On
Versions: 1 2 3 4 5 6 7 8 9 10 11 12
000
FTUS42 KRAH 271120
TAFFAY
TAF
KFAY 271120Z 2712/2812 VRB05KT P6SM SKC
     FM271900 16004KT P6SM VCTS SCT040CB SCT080
     FM280100 06003KT P6SM SCT250
     FM281000 03005KT 4SM BR BKN007=

USA.gov is the U.S. government's official web portal to all federal, state and local government web resources and services.